Time;durP1;ratioP1;P1;durP2;ratioP2;P2;SDS_P1;SDS_P2;PMS_P1;PMS_P2;Temp;Humidity;BMP_temperature;BMP_pressure;BME280_temperature;BME280_humidity;BME280_pressure;Samples;Min_cycle;Max_cycle;Signal;HPM_P1;HPM_P2
2023/06/05 00:00:26;;;;;;;5.25;3.70;;;;;;;14.08;72.96;101990.25;5021926;28;20483;-70
2023/06/05 00:02:52;;;;;;;5.28;3.83;;;;;;;14.06;73.24;101991.28;5023541;28;20071;-70
2023/06/05 00:05:18;;;;;;;4.95;3.95;;;;;;;14.01;73.20;102001.34;4999733;28;20060;-70
2023/06/05 00:07:43;;;;;;;4.70;3.53;;;;;;;13.93;73.60;101997.22;5026100;28;20484;-70
2023/06/05 00:10:09;;;;;;;5.50;3.63;;;;;;;13.99;73.25;102001.41;5023639;28;20025;-70
2023/06/05 00:12:36;;;;;;;5.95;3.90;;;;;;;13.83;73.80;101995.88;5024125;28;20017;-68
2023/06/05 00:15:02;;;;;;;5.90;3.92;;;;;;;13.80;73.87;101992.50;5017535;28;20021;-69
2023/06/05 00:17:28;;;;;;;6.30;3.50;;;;;;;13.75;73.91;101997.19;5019429;28;20048;-70
2023/06/05 00:19:53;;;;;;;4.00;3.65;;;;;;;13.65;74.33;102002.09;4988556;28;20060;-69
2023/06/05 00:22:19;;;;;;;5.57;3.83;;;;;;;13.63;74.58;101995.97;5021791;28;20034;-69
2023/06/05 00:24:45;;;;;;;6.40;3.90;;;;;;;13.56;74.84;101994.50;5021283;28;20490;-71
2023/06/05 00:27:10;;;;;;;4.32;3.70;;;;;;;13.42;75.23;101990.63;5023022;28;20025;-70
2023/06/05 00:29:36;;;;;;;4.90;3.55;;;;;;;13.58;74.68;101997.94;5017149;28;20502;-71
2023/06/05 00:32:01;;;;;;;6.30;4.07;;;;;;;13.37;75.32;101989.94;5016867;28;20064;-69
2023/06/05 00:34:27;;;;;;;5.57;4.20;;;;;;;13.31;75.70;101992.91;5019010;28;20021;-69
2023/06/05 00:36:53;;;;;;;5.40;3.95;;;;;;;13.40;75.46;101988.94;5016677;28;20040;-70
2023/06/05 00:39:19;;;;;;;6.43;3.80;;;;;;;13.26;76.05;101986.91;5021008;28;20548;-69
2023/06/05 00:41:45;;;;;;;6.43;3.80;;;;;;;13.20;76.40;101987.97;5018088;28;20026;-69
2023/06/05 00:44:11;;;;;;;5.50;3.80;;;;;;;13.16;76.46;101969.47;5017194;28;20491;-70
2023/06/05 00:46:37;;;;;;;4.95;3.78;;;;;;;13.13;76.93;101980.31;5019057;28;20216;-69
2023/06/05 00:49:02;;;;;;;4.80;4.30;;;;;;;13.06;76.99;101984.19;5021942;28;20269;-69
2023/06/05 00:51:28;;;;;;;6.72;4.18;;;;;;;12.89;77.65;101977.75;5001040;28;20044;-70
2023/06/05 00:53:54;;;;;;;6.32;4.38;;;;;;;12.96;77.59;102000.63;4999666;28;20034;-69
2023/06/05 00:56:20;;;;;;;6.60;4.28;;;;;;;12.93;78.09;101990.06;5017272;28;20060;-70
2023/06/05 00:58:47;;;;;;;5.07;3.88;;;;;;;12.93;77.75;101995.41;5017192;28;20045;-70
2023/06/05 01:01:14;;;;;;;5.50;4.30;;;;;;;12.95;77.73;101989.97;5020248;28;20099;-70
2023/06/05 01:03:40;;;;;;;5.40;4.20;;;;;;;12.96;77.62;101997.09;5018820;28;20025;-70
2023/06/05 01:06:06;;;;;;;7.57;4.55;;;;;;;12.96;77.71;101984.59;5022044;28;20083;-70
2023/06/05 01:08:38;;;;;;;5.90;4.18;;;;;;;12.88;78.03;101984.03;5016368;28;20026;-69
2023/06/05 01:11:09;;;;;;;6.95;4.50;;;;;;;12.87;78.25;101994.78;5020416;28;20231;-70
2023/06/05 01:13:35;;;;;;;5.15;4.45;;;;;;;12.73;78.89;101987.34;5015938;28;20034;-69
2023/06/05 01:16:04;;;;;;;5.88;4.22;;;;;;;12.69;79.25;101983.06;5017981;28;20510;-69
2023/06/05 01:18:30;;;;;;;6.78;4.28;;;;;;;12.68;79.27;101981.34;5025026;28;20029;-70
2023/06/05 01:21:01;;;;;;;5.97;5.03;;;;;;;12.58;79.65;101983.53;5022236;28;20021;-69
2023/06/05 01:23:29;;;;;;;7.25;5.00;;;;;;;12.59;79.59;101979.06;5021322;28;20030;-70
2023/06/05 01:25:59;;;;;;;10.85;4.75;;;;;;;12.59;79.65;101982.59;5021614;28;20025;-70
2023/06/05 01:28:30;;;;;;;7.13;4.80;;;;;;;12.53;79.89;101979.28;5013467;28;20247;-70
2023/06/05 01:31:08;;;;;;;8.25;5.13;;;;;;;12.40;80.79;101995.81;5021864;28;20040;-70
2023/06/05 01:33:44;;;;;;;5.80;4.47;;;;;;;12.36;81.07;101988.84;5003325;28;20057;-70
2023/06/05 01:36:13;;;;;;;8.40;5.00;;;;;;;12.29;81.42;101987.38;5015935;28;20131;-70
2023/06/05 01:38:40;;;;;;;5.80;4.70;;;;;;;12.27;81.96;101978.53;5020679;28;20112;-69
2023/06/05 01:41:08;;;;;;;4.97;4.47;;;;;;;12.19;82.20;101977.97;5020375;28;20056;-69
2023/06/05 01:43:35;;;;;;;7.47;5.38;;;;;;;12.15;82.56;101973.69;5016387;28;20056;-70
2023/06/05 01:46:00;;;;;;;6.78;5.05;;;;;;;12.07;82.94;101965.97;5013338;28;20029;-70
2023/06/05 01:48:27;;;;;;;7.85;5.72;;;;;;;11.96;83.55;101974.41;5017042;28;20387;-70
2023/06/05 01:51:02;;;;;;;6.63;5.82;;;;;;;11.93;83.60;101969.19;5000489;28;20029;-70
2023/06/05 01:53:29;;;;;;;7.18;5.80;;;;;;;11.96;83.77;101973.56;5015547;28;20372;-70
2023/06/05 01:55:58;;;;;;;8.90;5.80;;;;;;;11.98;83.89;101971.69;5003940;28;20033;-70
2023/06/05 01:58:24;;;;;;;6.68;5.80;;;;;;;11.99;83.87;101969.88;5003416;28;20038;-70
2023/06/05 02:00:50;;;;;;;7.78;5.65;;;;;;;11.91;84.34;101964.81;5021630;28;20025;-70
2023/06/05 02:03:16;;;;;;;9.18;5.72;;;;;;;11.93;84.36;101961.19;5017149;28;20391;-70
2023/06/05 02:05:42;;;;;;;9.20;5.82;;;;;;;11.85;84.57;101955.28;5017006;28;20101;-69
2023/06/05 02:08:09;;;;;;;7.30;6.03;;;;;;;11.77;85.16;101959.13;5021293;28;20472;-70
2023/06/05 02:10:35;;;;;;;8.25;6.03;;;;;;;11.82;84.70;101958.00;5016011;28;20220;-69
2023/06/05 02:13:00;;;;;;;7.80;5.70;;;;;;;11.82;84.88;101959.81;5019360;28;20037;-70
2023/06/05 02:15:25;;;;;;;6.10;5.53;;;;;;;11.70;85.72;101955.81;5023337;28;20041;-72
2023/06/05 02:17:52;;;;;;;8.43;6.05;;;;;;;11.63;86.32;101955.19;5029194;28;20437;-71
2023/06/05 02:20:19;;;;;;;7.35;6.10;;;;;;;11.77;85.35;101957.31;5021117;28;20246;-70
2023/06/05 02:22:45;;;;;;;7.28;6.13;;;;;;;11.58;86.37;101962.50;4994088;28;20030;-70
2023/06/05 02:25:11;;;;;;;7.53;6.20;;;;;;;11.56;86.56;101955.47;5003773;28;20096;-68
2023/06/05 02:27:37;;;;;;;7.10;6.20;;;;;;;11.52;87.11;101959.19;5023055;28;20041;-69
2023/06/05 02:30:03;;;;;;;10.40;7.28;;;;;;;11.51;87.11;101957.44;5021147;28;20045;-69
2023/06/05 02:32:31;;;;;;;9.73;6.88;;;;;;;11.47;87.35;101954.88;5020600;28;20044;-70
2023/06/05 02:34:56;;;;;;;8.32;6.35;;;;;;;11.34;87.73;101940.28;5017637;28;20385;-69
2023/06/05 02:37:26;;;;;;;9.85;7.00;;;;;;;11.50;87.19;101945.91;5023474;28;20114;-69
2023/06/05 02:39:52;;;;;;;6.88;6.18;;;;;;;11.46;87.29;101949.63;5022711;28;20029;-69
2023/06/05 02:42:18;;;;;;;7.45;6.55;;;;;;;11.48;87.13;101947.75;5021041;28;20029;-69
2023/06/05 02:44:44;;;;;;;7.47;6.70;;;;;;;11.42;87.60;101940.88;5021458;28;20064;-70
2023/06/05 02:47:10;;;;;;;7.93;6.90;;;;;;;11.35;87.93;101934.00;5017102;28;20029;-70
2023/06/05 02:49:37;;;;;;;8.73;6.60;;;;;;;11.33;88.04;101940.31;5020866;28;20533;-70
2023/06/05 02:52:03;;;;;;;9.13;7.30;;;;;;;11.18;89.28;101936.44;5019787;28;20052;-68
2023/06/05 02:54:29;;;;;;;7.20;6.50;;;;;;;11.28;88.78;101936.94;5020894;28;20185;-69
2023/06/05 02:56:56;;;;;;;8.38;7.25;;;;;;;11.28;89.09;101935.16;5001768;28;20591;-70
2023/06/05 02:59:24;;;;;;;9.07;7.47;;;;;;;11.20;89.21;101935.47;5004667;28;20100;-69
2023/06/05 03:01:50;;;;;;;7.68;6.80;;;;;;;11.16;89.36;101932.94;5023331;28;20319;-69
2023/06/05 03:04:20;;;;;;;9.10;7.93;;;;;;;11.13;89.53;101933.06;5005352;28;20030;-70
2023/06/05 03:06:50;;;;;;;9.68;8.32;;;;;;;11.14;88.90;101927.66;5024287;28;20052;-69
2023/06/05 03:09:16;;;;;;;9.57;7.65;;;;;;;11.07;89.87;101938.59;5022805;28;20078;-69
2023/06/05 03:11:41;;;;;;;9.93;8.20;;;;;;;11.13;89.74;101938.38;5020058;28;20029;-69
2023/06/05 03:14:07;;;;;;;9.95;7.75;;;;;;;11.06;90.22;101939.53;5005162;28;20511;-70
2023/06/05 03:16:41;;;;;;;9.13;8.18;;;;;;;11.07;90.47;101934.13;5024326;28;20053;-69
2023/06/05 03:19:08;;;;;;;12.40;8.30;;;;;;;11.01;90.81;101936.16;5024557;28;20017;-69
2023/06/05 03:21:33;;;;;;;10.68;8.57;;;;;;;10.86;91.38;101925.09;5024023;28;20034;-70
2023/06/05 03:23:59;;;;;;;9.07;8.15;;;;;;;10.93;91.36;101937.28;5023501;28;20025;-70
2023/06/05 03:26:25;;;;;;;8.98;8.07;;;;;;;10.96;91.32;101929.19;5025756;28;20150;-69
2023/06/05 03:28:51;;;;;;;10.60;8.60;;;;;;;10.86;91.89;101927.75;5025133;28;20422;-69
2023/06/05 03:31:17;;;;;;;10.85;8.63;;;;;;;10.88;91.60;101925.94;5024702;28;20051;-69
2023/06/05 03:33:42;;;;;;;11.75;8.77;;;;;;;10.82;91.92;101919.94;5020905;28;20060;-70
2023/06/05 03:36:08;;;;;;;9.68;8.57;;;;;;;10.83;92.11;101924.38;5007224;28;20495;-69
2023/06/05 03:38:34;;;;;;;9.02;8.13;;;;;;;10.77;92.60;101919.22;5025398;28;20025;-70
2023/06/05 03:40:59;;;;;;;9.98;8.73;;;;;;;10.77;92.39;101925.41;5002901;28;20025;-70
2023/06/05 03:43:25;;;;;;;12.18;9.15;;;;;;;10.71;93.09;101920.31;5014892;28;20106;-70
2023/06/05 03:45:51;;;;;;;10.75;8.50;;;;;;;10.81;92.48;101923.53;5022914;28;20098;-70
2023/06/05 03:48:19;;;;;;;9.80;8.68;;;;;;;10.83;92.23;101922.56;5019274;28;20029;-70
2023/06/05 03:50:46;;;;;;;9.60;8.60;;;;;;;10.80;92.52;101913.81;5021783;28;20059;-70
2023/06/05 03:53:13;;;;;;;11.20;9.43;;;;;;;10.66;92.97;101916.94;4998947;28;20030;-70
2023/06/05 03:55:41;;;;;;;10.43;8.73;;;;;;;10.64;93.08;101918.78;5022694;28;20028;-71
2023/06/05 03:58:16;;;;;;;10.98;9.25;;;;;;;10.77;92.88;101927.22;5023246;28;20026;-70
2023/06/05 04:00:43;;;;;;;10.80;9.57;;;;;;;10.77;92.81;101925.41;5022839;28;20476;-70
2023/06/05 04:03:10;;;;;;;16.05;9.85;;;;;;;10.79;92.66;101923.59;5022450;28;20040;-70
2023/06/05 04:05:36;;;;;;;11.02;9.60;;;;;;;10.84;92.59;101918.09;5022841;28;20025;-70
2023/06/05 04:08:02;;;;;;;11.07;9.40;;;;;;;10.78;92.96;101927.16;5013451;28;20025;-70
2023/06/05 04:10:28;;;;;;;10.25;9.20;;;;;;;10.74;93.13;101925.53;5024051;28;20491;-70
2023/06/05 04:12:54;;;;;;;12.63;9.70;;;;;;;10.87;92.78;101928.66;5011239;28;20044;-70
2023/06/05 04:15:20;;;;;;;11.15;9.15;;;;;;;10.79;93.04;101923.59;5022967;28;20021;-70
2023/06/05 04:17:46;;;;;;;10.02;8.85;;;;;;;10.85;92.43;101930.50;5025542;28;20438;-70
2023/06/05 04:20:14;;;;;;;10.13;9.07;;;;;;;10.83;92.98;101927.88;5005100;28;20495;-69
2023/06/05 04:22:40;;;;;;;11.23;9.10;;;;;;;10.77;93.11;101936.06;5016427;28;20032;-70
2023/06/05 04:25:06;;;;;;;10.60;9.30;;;;;;;10.82;93.29;101928.78;5000728;28;20029;-71
2023/06/05 04:27:31;;;;;;;12.13;10.40;;;;;;;10.75;93.08;101927.28;5022955;28;20060;-69
2023/06/05 04:29:56;;;;;;;12.10;10.30;;;;;;;10.82;93.19;101934.13;5005753;28;20013;-70
2023/06/05 04:32:22;;;;;;;12.10;9.73;;;;;;;10.81;93.43;101936.84;5019054;28;20095;-70
2023/06/05 04:34:47;;;;;;;11.07;9.90;;;;;;;10.88;93.15;101936.59;5022961;28;20107;-70
2023/06/05 04:37:13;;;;;;;13.70;10.10;;;;;;;10.90;92.91;101933.84;5004830;28;20116;-69
2023/06/05 04:39:38;;;;;;;11.90;10.07;;;;;;;10.93;92.30;101925.75;5017799;28;20556;-70
2023/06/05 04:42:04;;;;;;;12.55;9.60;;;;;;;10.90;92.54;101926.72;5020411;28;20506;-71
2023/06/05 04:44:31;;;;;;;11.88;10.35;;;;;;;10.95;92.24;101935.47;5022922;28;20057;-70
2023/06/05 04:46:56;;;;;;;12.82;10.35;;;;;;;10.90;92.58;101940.03;5017505;28;20186;-70
2023/06/05 04:49:25;;;;;;;13.07;10.35;;;;;;;10.97;92.73;101943.38;5019849;28;20112;-69
2023/06/05 04:51:50;;;;;;;14.25;10.50;;;;;;;11.02;92.32;101946.75;5001280;28;20097;-70
2023/06/05 04:54:15;;;;;;;16.88;10.77;;;;;;;11.13;92.02;101949.91;5018986;28;20505;-70
2023/06/05 04:56:41;;;;;;;11.52;10.32;;;;;;;11.25;91.69;101948.63;5022423;28;20029;-69
2023/06/05 04:59:07;;;;;;;13.77;11.05;;;;;;;11.24;91.37;101946.84;5020142;28;20060;-70
2023/06/05 05:01:33;;;;;;;12.75;11.02;;;;;;;11.25;91.62;101945.06;5016817;28;20103;-70
2023/06/05 05:03:59;;;;;;;13.15;10.88;;;;;;;11.24;91.21;101938.84;4997694;28;20022;-70
2023/06/05 05:06:25;;;;;;;11.80;10.60;;;;;;;11.42;91.00;101945.31;5023418;28;20041;-70
2023/06/05 05:08:50;;;;;;;14.02;11.35;;;;;;;11.53;90.62;101944.91;5023995;28;20033;-69
2023/06/05 05:11:17;;;;;;;12.85;10.52;;;;;;;11.63;89.85;101947.19;5021912;28;20034;-70
2023/06/05 05:13:43;;;;;;;13.25;11.70;;;;;;;11.57;89.47;101938.53;5023400;28;20014;-70
2023/06/05 05:16:09;;;;;;;13.07;11.07;;;;;;;11.58;89.49;101937.59;5024407;28;20436;-68
2023/06/05 05:18:36;;;;;;;12.30;11.10;;;;;;;11.66;89.29;101935.53;5022208;28;20493;-70
2023/06/05 05:21:02;;;;;;;12.10;10.85;;;;;;;11.72;88.77;101941.50;5017279;28;20029;-70
2023/06/05 05:23:28;;;;;;;12.20;10.90;;;;;;;11.85;88.50;101941.94;5013229;28;20037;-70
2023/06/05 05:25:54;;;;;;;13.30;11.70;;;;;;;11.88;87.92;101939.16;5004140;28;20088;-70
2023/06/05 05:28:19;;;;;;;18.35;11.90;;;;;;;12.00;87.41;101936.91;5023369;28;20483;-69
2023/06/05 05:30:45;;;;;;;14.05;10.80;;;;;;;12.08;87.31;101940.16;5020168;28;20029;-70
2023/06/05 05:33:10;;;;;;;14.20;10.38;;;;;;;12.15;86.29;101930.97;5023115;28;20028;-69
2023/06/05 05:35:36;;;;;;;12.57;10.82;;;;;;;12.17;86.04;101938.00;5022599;28;20040;-70
2023/06/05 05:38:01;;;;;;;12.38;11.07;;;;;;;12.22;85.84;101932.47;5021486;28;20021;-71
2023/06/05 05:40:26;;;;;;;12.57;10.35;;;;;;;12.31;84.77;101947.25;5019723;28;20118;-70
2023/06/05 05:42:52;;;;;;;12.57;10.68;;;;;;;12.41;84.50;101936.13;5013450;28;20048;-70
2023/06/05 05:45:17;;;;;;;13.27;10.68;;;;;;;12.51;84.17;101939.31;5019889;28;20055;-70
2023/06/05 05:47:42;;;;;;;12.88;10.73;;;;;;;12.66;83.39;101932.44;5015505;28;20550;-70
2023/06/05 05:50:08;;;;;;;12.40;10.68;;;;;;;12.69;82.51;101937.66;4993397;28;20083;-69
2023/06/05 05:52:34;;;;;;;14.63;10.10;;;;;;;12.86;81.83;101936.94;5021164;28;20433;-71
2023/06/05 05:54:59;;;;;;;11.23;9.98;;;;;;;12.89;81.24;101936.81;5016382;28;20032;-69
2023/06/05 05:57:25;;;;;;;13.68;10.55;;;;;;;13.00;80.53;101939.00;5019106;28;20025;-70
2023/06/05 05:59:51;;;;;;;13.10;10.23;;;;;;;13.17;80.43;101940.03;5021666;28;20049;-70
2023/06/05 06:02:17;;;;;;;10.85;9.75;;;;;;;13.33;78.78;101934.88;5017478;28;20119;-70
2023/06/05 06:04:43;;;;;;;11.82;9.63;;;;;;;13.50;78.01;101949.28;5018229;28;20511;-70
2023/06/05 06:07:09;;;;;;;11.18;9.75;;;;;;;13.60;77.59;101948.81;5019906;28;20032;-69
2023/06/05 06:09:35;;;;;;;12.25;9.65;;;;;;;13.62;76.43;101957.63;5024197;28;20391;-68
2023/06/05 06:12:05;;;;;;;11.40;9.55;;;;;;;13.82;75.63;101961.19;5023449;28;20067;-70
2023/06/05 06:14:31;;;;;;;10.32;9.27;;;;;;;13.99;74.58;101957.72;5024669;28;20249;-68
2023/06/05 06:16:57;;;;;;;9.85;8.77;;;;;;;14.09;74.13;101956.34;5004699;28;20045;-68
2023/06/05 06:19:23;;;;;;;12.07;9.98;;;;;;;14.14;73.52;101962.34;5017391;28;20419;-69
2023/06/05 06:21:51;;;;;;;10.35;9.18;;;;;;;14.28;72.86;101959.00;5001146;28;20029;-69
2023/06/05 06:24:19;;;;;;;9.85;8.30;;;;;;;14.40;71.47;101950.38;5007358;28;20472;-69
2023/06/05 06:26:45;;;;;;;11.25;9.25;;;;;;;14.41;71.24;101952.94;5018111;28;20033;-70
2023/06/05 06:29:10;;;;;;;9.93;8.90;;;;;;;14.51;71.01;101952.56;5020414;28;20025;-69
2023/06/05 06:31:36;;;;;;;10.57;9.45;;;;;;;14.63;70.60;101954.59;5023034;28;20025;-69
2023/06/05 06:34:01;;;;;;;11.80;9.85;;;;;;;14.61;69.70;101952.00;5024390;28;20420;-71
2023/06/05 06:36:27;;;;;;;11.00;8.95;;;;;;;14.84;69.56;101960.69;5006634;28;20493;-70
2023/06/05 06:38:52;;;;;;;10.45;9.05;;;;;;;15.03;69.25;101952.56;5012432;28;20096;-70
2023/06/05 06:41:18;;;;;;;12.18;10.20;;;;;;;15.24;69.46;101958.63;5021599;28;20025;-70
2023/06/05 06:43:43;;;;;;;12.65;10.43;;;;;;;15.40;68.27;101955.06;5025628;28;20065;-70
2023/06/05 06:46:08;;;;;;;12.18;10.18;;;;;;;15.45;68.05;101958.34;5018236;28;20487;-69
2023/06/05 06:48:34;;;;;;;12.18;10.93;;;;;;;15.50;68.60;101960.78;5030003;28;20026;-71
2023/06/05 06:51:03;;;;;;;14.27;10.45;;;;;;;15.49;67.45;101963.56;5026629;28;20055;-71
2023/06/05 06:53:29;;;;;;;12.13;10.05;;;;;;;15.55;67.13;101960.53;5022218;28;20079;-71
2023/06/05 06:55:54;;;;;;;11.52;9.35;;;;;;;15.55;66.71;101958.75;5003997;28;20021;-73
2023/06/05 06:58:19;;;;;;;12.68;9.93;;;;;;;15.88;66.42;101958.75;5023974;28;20083;-73
2023/06/05 07:00:45;;;;;;;13.35;10.43;;;;;;;16.00;65.92;101962.53;5018660;28;20083;-73
2023/06/05 07:03:11;;;;;;;12.70;9.98;;;;;;;16.16;66.09;101952.69;5007495;28;20523;-72
2023/06/05 07:05:36;;;;;;;12.40;10.55;;;;;;;16.34;65.18;101974.94;5016895;28;20121;-72
2023/06/05 07:08:01;;;;;;;11.02;9.90;;;;;;;16.58;64.32;101982.53;5023856;28;20048;-73
2023/06/05 07:10:28;;;;;;;12.85;10.75;;;;;;;16.68;64.32;101978.38;5002759;28;20021;-72
2023/06/05 07:12:54;;;;;;;13.85;11.18;;;;;;;16.77;62.92;101982.38;5002852;28;20034;-72
2023/06/05 07:15:20;;;;;;;12.45;10.57;;;;;;;16.76;62.81;101981.53;5018008;28;20033;-72
2023/06/05 07:17:45;;;;;;;11.18;10.00;;;;;;;16.84;62.67;101987.28;5013234;28;20042;-72
2023/06/05 07:20:12;;;;;;;11.48;10.27;;;;;;;16.82;62.09;101986.53;5001360;28;20064;-72
2023/06/05 07:22:42;;;;;;;13.52;10.32;;;;;;;17.20;61.89;101979.81;5019935;28;20037;-72
2023/06/05 07:25:08;;;;;;;12.65;10.93;;;;;;;17.30;61.66;101980.97;5019555;28;20042;-71
2023/06/05 07:27:33;;;;;;;12.25;10.95;;;;;;;17.58;60.15;101985.53;5019869;28;20021;-71
2023/06/05 07:29:59;;;;;;;14.48;10.90;;;;;;;18.00;59.28;101978.44;5020387;28;20040;-71
2023/06/05 07:32:24;;;;;;;13.50;10.65;;;;;;;17.97;58.13;101984.88;5021569;28;20029;-71
2023/06/05 07:34:51;;;;;;;12.60;11.00;;;;;;;18.24;58.03;101981.38;5018843;28;20021;-73
2023/06/05 07:37:16;;;;;;;14.15;11.10;;;;;;;18.55;56.13;101981.06;5020171;28;20525;-70
2023/06/05 07:39:42;;;;;;;13.45;10.48;;;;;;;18.91;55.30;101972.38;5021497;28;20025;-70
2023/06/05 07:42:10;;;;;;;12.05;10.43;;;;;;;19.05;55.00;101989.44;5021393;28;20442;-71
2023/06/05 07:44:35;;;;;;;11.30;10.20;;;;;;;19.52;53.03;101980.78;5021943;28;20177;-70
2023/06/05 07:47:01;;;;;;;11.63;10.30;;;;;;;19.72;52.82;101992.88;5017802;28;20045;-70
2023/06/05 07:49:32;;;;;;;11.60;10.43;;;;;;;20.21;51.79;101981.22;5001426;28;20017;-70
2023/06/05 07:51:57;;;;;;;12.20;10.00;;;;;;;20.50;49.88;101989.06;5024214;28;20033;-71
2023/06/05 07:54:23;;;;;;;11.98;10.18;;;;;;;20.71;49.57;101991.97;5019125;28;20034;-71
2023/06/05 07:56:50;;;;;;;11.77;10.23;;;;;;;20.36;49.43;101988.22;4999386;28;20029;-71
2023/06/05 07:59:24;;;;;;;11.52;9.60;;;;;;;20.30;49.80;101991.34;5021428;28;20064;-73
2023/06/05 08:01:49;;;;;;;12.82;10.13;;;;;;;20.72;48.17;101986.44;5022148;28;20029;-71
2023/06/05 08:04:15;;;;;;;12.90;10.05;;;;;;;20.88;48.20;101978.88;5026731;28;20091;-71
2023/06/05 08:06:41;;;;;;;11.80;9.50;;;;;;;21.73;47.00;101985.88;5018668;28;20036;-71
2023/06/05 08:09:09;;;;;;;12.82;10.15;;;;;;;21.46;45.60;101981.66;5025530;28;20139;-71
2023/06/05 08:11:36;;;;;;;13.05;9.85;;;;;;;21.78;45.59;101980.94;5024768;28;20026;-70
2023/06/05 08:14:03;;;;;;;13.90;9.68;;;;;;;22.20;44.76;101984.78;5000971;28;20028;-71
2023/06/05 08:16:29;;;;;;;10.25;9.25;;;;;;;22.59;44.21;101980.59;5018956;28;20098;-72
2023/06/05 08:18:54;;;;;;;9.85;8.85;;;;;;;22.63;42.69;101979.34;5019071;28;20434;-71
2023/06/05 08:21:20;;;;;;;10.65;8.80;;;;;;;22.71;42.91;101961.56;5018696;28;20029;-70
2023/06/05 08:23:45;;;;;;;11.05;8.88;;;;;;;22.75;43.03;101966.59;5020840;28;20029;-72
2023/06/05 08:26:12;;;;;;;12.45;8.85;;;;;;;22.80;42.13;101958.91;5008452;28;20140;-71
2023/06/05 08:28:39;;;;;;;10.27;8.63;;;;;;;23.21;41.48;101959.97;5020096;28;20100;-72
2023/06/05 08:31:05;;;;;;;14.50;8.63;;;;;;;23.66;41.44;101961.50;5022586;28;20044;-73
2023/06/05 08:33:33;;;;;;;9.73;8.52;;;;;;;24.22;40.02;101967.31;5002845;28;20021;-72
2023/06/05 08:35:58;;;;;;;11.52;8.52;;;;;;;24.34;39.81;101954.44;5020855;28;20490;-73
2023/06/05 08:38:23;;;;;;;11.85;8.80;;;;;;;24.73;38.66;101954.50;5007824;28;20033;-70
2023/06/05 08:40:56;;;;;;;8.73;7.82;;;;;;;25.16;37.81;101956.75;5017938;28;20035;-71
2023/06/05 08:43:21;;;;;;;11.63;9.05;;;;;;;25.94;36.58;101953.81;4997216;28;20030;-72
2023/06/05 08:45:51;;;;;;;8.65;7.57;;;;;;;26.33;35.14;101955.31;5018218;28;20030;-71
2023/06/05 08:48:18;;;;;;;8.65;7.30;;;;;;;26.36;35.49;101951.38;5017757;28;20033;-71
2023/06/05 08:50:44;;;;;;;8.52;7.38;;;;;;;26.96;34.43;101939.84;5019596;28;20065;-71
2023/06/05 08:53:12;;;;;;;10.38;7.57;;;;;;;26.89;34.48;101942.38;5021132;28;20302;-72
2023/06/05 08:55:39;;;;;;;9.32;7.80;;;;;;;26.90;34.45;101944.06;5020202;28;20033;-72
2023/06/05 08:58:05;;;;;;;8.50;7.60;;;;;;;27.00;33.86;101952.16;5021103;28;20040;-71
2023/06/05 09:00:31;;;;;;;10.48;7.45;;;;;;;26.94;33.66;101950.94;5018276;28;20331;-72
2023/06/05 09:02:57;;;;;;;9.75;7.30;;;;;;;27.79;33.35;101943.84;5000743;28;20033;-72
2023/06/05 09:05:22;;;;;;;8.02;6.43;;;;;;;28.89;31.15;101941.88;4998719;28;20047;-73
2023/06/05 09:07:48;;;;;;;7.50;6.80;;;;;;;29.24;30.84;101948.03;5002779;28;20040;-71
2023/06/05 09:10:24;;;;;;;9.50;7.47;;;;;;;29.32;30.99;101948.03;5018222;28;20036;-73
2023/06/05 09:12:58;;;;;;;7.72;6.95;;;;;;;29.24;30.86;101948.03;4996541;28;20534;-72
2023/06/05 09:15:34;;;;;;;9.32;7.13;;;;;;;29.51;30.82;101947.66;5014616;28;20167;-71
2023/06/05 09:18:08;;;;;;;8.85;6.63;;;;;;;29.66;30.88;101949.69;5018903;28;20076;-73
2023/06/05 09:20:36;;;;;;;8.73;6.93;;;;;;;29.45;29.72;101945.59;5020935;28;20609;-75
2023/06/05 09:23:22;;;;;;;7.93;7.15;;;;;;;29.34;29.96;101940.47;5017195;28;20090;-78
2023/06/05 09:25:48;;;;;;;9.57;7.25;;;;;;;29.54;29.23;101938.19;5022025;28;20033;-73
2023/06/05 09:28:15;;;;;;;7.65;6.47;;;;;;;29.96;29.12;101935.13;5018388;28;20044;-73
2023/06/05 09:30:55;;;;;;;9.68;7.30;;;;;;;31.04;28.75;101945.25;5021580;28;20033;-75
2023/06/05 09:33:21;;;;;;;9.02;6.63;;;;;;;31.26;27.14;101933.31;5019477;28;20033;-73
2023/06/05 09:35:46;;;;;;;9.70;6.93;;;;;;;31.39;27.02;101934.59;5014166;28;20044;-75
2023/06/05 09:38:26;;;;;;;6.68;5.82;;;;;;;31.24;28.15;101929.94;5021581;28;20038;-73
2023/06/05 09:40:51;;;;;;;7.45;6.10;;;;;;;30.00;27.68;101938.38;5019473;28;20072;-72
2023/06/05 09:43:22;;;;;;;8.27;6.47;;;;;;;29.95;28.49;101944.41;5026870;28;20061;-72
2023/06/05 09:45:48;;;;;;;8.88;6.13;;;;;;;30.74;27.45;101936.94;5004679;28;20091;-71
2023/06/05 09:48:14;;;;;;;8.27;6.18;;;;;;;30.84;27.16;101942.16;5023292;28;20033;-71
2023/06/05 09:50:40;;;;;;;7.05;6.13;;;;;;;31.36;26.41;101935.00;5019295;28;20051;-70
2023/06/05 09:53:08;;;;;;;9.43;5.93;;;;;;;31.09;26.62;101925.44;5013107;28;20057;-71
2023/06/05 09:55:34;;;;;;;8.07;6.20;;;;;;;31.02;26.69;101936.34;5015701;28;20039;-69
2023/06/05 09:58:10;;;;;;;8.18;6.57;;;;;;;31.16;26.48;101941.00;5012888;28;20036;-73
2023/06/05 10:00:38;;;;;;;7.70;6.07;;;;;;;31.77;25.55;101934.50;5013952;28;20033;-70
2023/06/05 10:03:08;;;;;;;7.10;6.30;;;;;;;31.81;25.46;101933.06;5016617;28;20024;-71
2023/06/05 10:05:37;;;;;;;8.00;6.20;;;;;;;31.82;25.54;101926.53;5010596;28;20041;-74
2023/06/05 10:08:02;;;;;;;8.13;5.88;;;;;;;31.82;24.88;101921.88;5021144;28;20510;-73
2023/06/05 10:10:29;;;;;;;6.97;5.65;;;;;;;31.14;25.65;101915.56;5015775;28;20033;-73
2023/06/05 10:12:56;;;;;;;6.15;5.40;;;;;;;31.63;25.15;101922.47;5019589;28;20076;-70
2023/06/05 10:15:23;;;;;;;8.43;6.32;;;;;;;31.68;24.83;101917.25;5021053;28;20060;-71
2023/06/05 10:17:49;;;;;;;8.60;5.55;;;;;;;32.42;24.81;101917.13;5020433;28;20060;-69
2023/06/05 10:20:14;;;;;;;7.38;6.05;;;;;;;32.95;23.84;101923.16;5014567;28;20503;-71
2023/06/05 10:22:43;;;;;;;7.40;5.78;;;;;;;32.92;23.55;101910.59;5020733;28;20026;-71
2023/06/05 10:25:12;;;;;;;6.07;5.47;;;;;;;33.79;22.48;101913.94;5021452;28;20025;-73
2023/06/05 10:27:43;;;;;;;11.02;6.20;;;;;;;34.06;22.51;101915.75;5001343;28;20037;-72
2023/06/05 10:30:20;;;;;;;7.90;5.30;;;;;;;34.78;22.17;101917.00;5016760;28;20093;-73
2023/06/05 10:32:46;;;;;;;5.88;5.28;;;;;;;35.06;21.13;101910.41;5020919;28;20571;-71
2023/06/05 10:35:44;;;;;;;7.05;5.93;;;;;;;35.39;22.72;101904.78;5006179;28;20105;-71
2023/06/05 10:38:24;;;;;;;7.55;5.82;;;;;;;35.13;22.66;101911.25;4999565;28;20128;-71
2023/06/05 10:41:03;;;;;;;9.55;5.90;;;;;;;34.91;22.19;101916.13;5014123;28;20025;-73
2023/06/05 10:43:32;;;;;;;6.57;5.70;;;;;;;34.32;22.08;101917.75;5026189;28;20026;-72
2023/06/05 10:46:00;;;;;;;7.65;5.22;;;;;;;34.41;22.21;101912.88;5014126;28;20091;-72
2023/06/05 10:49:07;;;;;;;7.25;5.20;;;;;;;35.21;22.46;101915.72;4999390;28;20431;-72
2023/06/05 10:51:39;;;;;;;6.43;5.05;;;;;;;34.87;21.38;101909.34;5016268;28;20026;-72
2023/06/05 10:54:35;;;;;;;8.73;5.47;;;;;;;34.96;21.14;101898.91;4999348;28;20476;-70
2023/06/05 10:57:06;;;;;;;9.23;5.22;;;;;;;34.97;21.41;101904.19;5018224;28;20049;-73
2023/06/05 10:59:34;;;;;;;11.13;6.40;;;;;;;35.08;21.24;101898.06;5006513;28;20113;-72
2023/06/05 11:02:08;;;;;;;8.63;4.40;;;;;;;35.16;21.25;101902.53;5023277;28;20373;-71
2023/06/05 11:04:46;;;;;;;6.45;5.10;;;;;;;34.91;21.60;101903.16;5020629;28;20197;-70
2023/06/05 11:07:21;;;;;;;7.43;5.00;;;;;;;35.26;21.71;101894.63;5027488;28;20499;-71
2023/06/05 11:10:10;;;;;;;6.90;4.80;;;;;;;36.00;20.98;101884.19;5024224;28;20107;-71
2023/06/05 11:12:35;;;;;;;8.77;5.20;;;;;;;35.77;20.47;101885.50;5022821;28;20033;-70
2023/06/05 11:15:04;;;;;;;9.32;5.68;;;;;;;35.85;20.14;101889.97;5018923;28;20494;-72
2023/06/05 11:17:32;;;;;;;4.90;4.50;;;;;;;36.29;20.33;101891.03;5023725;28;20072;-69
2023/06/05 11:19:58;;;;;;;7.28;5.68;;;;;;;35.48;20.64;101884.13;5025059;28;20076;-72